sensor_id;sensor_type;location;lat;lon;timestamp;P1;durP1;ratioP1;P2;durP2;ratioP2
52902;SDS011;38765;53.176;7.090;2022-08-21T00:01:03;0.30;;;0.30;;
52902;SDS011;38765;53.176;7.090;2022-08-21T00:03:34;0.40;;;0.40;;
52902;SDS011;38765;53.176;7.090;2022-08-21T00:05:59;0.40;;;0.40;;
52902;SDS011;38765;53.176;7.090;2022-08-21T00:08:28;0.40;;;0.40;;
52902;SDS011;38765;53.176;7.090;2022-08-21T00:10:54;0.40;;;0.40;;
52902;SDS011;38765;53.176;7.090;2022-08-21T00:13:21;0.40;;;0.40;;
52902;SDS011;38765;53.176;7.090;2022-08-21T00:15:50;0.40;;;0.40;;
52902;SDS011;38765;53.176;7.090;2022-08-21T00:18:16;0.40;;;0.40;;
52902;SDS011;38765;53.176;7.090;2022-08-21T00:20:43;0.30;;;0.30;;
52902;SDS011;38765;53.176;7.090;2022-08-21T00:23:17;0.40;;;0.40;;
52902;SDS011;38765;53.176;7.090;2022-08-21T00:25:43;0.40;;;0.40;;
52902;SDS011;38765;53.176;7.090;2022-08-21T00:28:12;0.40;;;0.40;;
52902;SDS011;38765;53.176;7.090;2022-08-21T00:30:41;0.30;;;0.30;;
52902;SDS011;38765;53.176;7.090;2022-08-21T00:33:15;0.40;;;0.40;;
52902;SDS011;38765;53.176;7.090;2022-08-21T00:35:42;0.40;;;0.40;;
52902;SDS011;38765;53.176;7.090;2022-08-21T00:38:10;0.40;;;0.40;;
52902;SDS011;38765;53.176;7.090;2022-08-21T00:40:45;0.40;;;0.40;;
52902;SDS011;38765;53.176;7.090;2022-08-21T00:43:15;0.30;;;0.30;;
52902;SDS011;38765;53.176;7.090;2022-08-21T00:45:50;0.40;;;0.40;;
52902;SDS011;38765;53.176;7.090;2022-08-21T00:48:18;0.40;;;0.40;;
52902;SDS011;38765;53.176;7.090;2022-08-21T00:50:52;0.30;;;0.30;;
52902;SDS011;38765;53.176;7.090;2022-08-21T00:53:23;0.30;;;0.30;;
52902;SDS011;38765;53.176;7.090;2022-08-21T00:55:52;0.40;;;0.40;;
52902;SDS011;38765;53.176;7.090;2022-08-21T00:58:21;0.35;;;0.35;;
52902;SDS011;38765;53.176;7.090;2022-08-21T01:00:49;0.30;;;0.30;;
52902;SDS011;38765;53.176;7.090;2022-08-21T01:03:19;0.38;;;0.38;;
52902;SDS011;38765;53.176;7.090;2022-08-21T01:05:56;0.40;;;0.40;;
52902;SDS011;38765;53.176;7.090;2022-08-21T01:08:22;0.40;;;0.40;;
52902;SDS011;38765;53.176;7.090;2022-08-21T01:10:52;0.40;;;0.40;;
52902;SDS011;38765;53.176;7.090;2022-08-21T01:13:18;0.30;;;0.30;;
52902;SDS011;38765;53.176;7.090;2022-08-21T01:15:47;0.32;;;0.32;;
52902;SDS011;38765;53.176;7.090;2022-08-21T01:18:18;0.40;;;0.40;;
52902;SDS011;38765;53.176;7.090;2022-08-21T01:23:26;0.40;;;0.40;;
52902;SDS011;38765;53.176;7.090;2022-08-21T01:26:02;0.40;;;0.40;;
52902;SDS011;38765;53.176;7.090;2022-08-21T01:28:33;0.30;;;0.30;;
52902;SDS011;38765;53.176;7.090;2022-08-21T01:31:06;0.40;;;0.40;;
52902;SDS011;38765;53.176;7.090;2022-08-21T01:33:33;0.40;;;0.40;;
52902;SDS011;38765;53.176;7.090;2022-08-21T01:35:59;0.30;;;0.30;;
52902;SDS011;38765;53.176;7.090;2022-08-21T01:38:38;0.40;;;0.40;;
52902;SDS011;38765;53.176;7.090;2022-08-21T01:41:05;0.40;;;0.40;;
52902;SDS011;38765;53.176;7.090;2022-08-21T01:43:34;0.30;;;0.30;;
52902;SDS011;38765;53.176;7.090;2022-08-21T01:46:07;0.40;;;0.40;;
52902;SDS011;38765;53.176;7.090;2022-08-21T01:48:41;0.40;;;0.40;;
52902;SDS011;38765;53.176;7.090;2022-08-21T01:51:07;0.40;;;0.40;;
52902;SDS011;38765;53.176;7.090;2022-08-21T01:53:39;0.40;;;0.40;;
52902;SDS011;38765;53.176;7.090;2022-08-21T01:56:09;0.40;;;0.40;;
52902;SDS011;38765;53.176;7.090;2022-08-21T01:58:39;0.30;;;0.30;;
52902;SDS011;38765;53.176;7.090;2022-08-21T02:01:16;0.30;;;0.30;;
52902;SDS011;38765;53.176;7.090;2022-08-21T02:03:54;0.40;;;0.40;;
52902;SDS011;38765;53.176;7.090;2022-08-21T02:06:26;0.40;;;0.40;;
52902;SDS011;38765;53.176;7.090;2022-08-21T02:08:54;0.40;;;0.40;;
52902;SDS011;38765;53.176;7.090;2022-08-21T02:11:27;0.40;;;0.40;;
52902;SDS011;38765;53.176;7.090;2022-08-21T02:13:53;0.30;;;0.30;;
52902;SDS011;38765;53.176;7.090;2022-08-21T02:16:22;0.40;;;0.40;;
52902;SDS011;38765;53.176;7.090;2022-08-21T02:18:55;0.40;;;0.40;;
52902;SDS011;38765;53.176;7.090;2022-08-21T02:21:21;0.40;;;0.40;;
52902;SDS011;38765;53.176;7.090;2022-08-21T02:23:47;0.40;;;0.40;;
52902;SDS011;38765;53.176;7.090;2022-08-21T02:26:13;0.40;;;0.40;;
52902;SDS011;38765;53.176;7.090;2022-08-21T02:28:40;0.40;;;0.40;;
52902;SDS011;38765;53.176;7.090;2022-08-21T02:31:09;0.40;;;0.40;;
52902;SDS011;38765;53.176;7.090;2022-08-21T02:33:35;0.40;;;0.40;;
52902;SDS011;38765;53.176;7.090;2022-08-21T02:36:01;0.40;;;0.40;;
52902;SDS011;38765;53.176;7.090;2022-08-21T02:38:29;0.40;;;0.40;;
52902;SDS011;38765;53.176;7.090;2022-08-21T02:40:58;0.40;;;0.40;;
52902;SDS011;38765;53.176;7.090;2022-08-21T02:43:26;0.40;;;0.40;;
52902;SDS011;38765;53.176;7.090;2022-08-21T02:45:53;0.40;;;0.40;;
52902;SDS011;38765;53.176;7.090;2022-08-21T02:48:31;0.40;;;0.40;;
52902;SDS011;38765;53.176;7.090;2022-08-21T02:51:01;0.40;;;0.40;;
52902;SDS011;38765;53.176;7.090;2022-08-21T02:53:30;0.40;;;0.40;;
52902;SDS011;38765;53.176;7.090;2022-08-21T02:56:00;0.40;;;0.40;;
52902;SDS011;38765;53.176;7.090;2022-08-21T02:58:29;0.40;;;0.40;;
52902;SDS011;38765;53.176;7.090;2022-08-21T03:01:00;0.40;;;0.40;;
52902;SDS011;38765;53.176;7.090;2022-08-21T03:03:29;0.40;;;0.40;;
52902;SDS011;38765;53.176;7.090;2022-08-21T03:05:55;0.40;;;0.40;;
52902;SDS011;38765;53.176;7.090;2022-08-21T03:08:23;0.40;;;0.40;;
52902;SDS011;38765;53.176;7.090;2022-08-21T03:10:51;0.40;;;0.40;;
52902;SDS011;38765;53.176;7.090;2022-08-21T03:13:20;0.40;;;0.40;;
52902;SDS011;38765;53.176;7.090;2022-08-21T03:15:49;0.40;;;0.40;;
52902;SDS011;38765;53.176;7.090;2022-08-21T03:18:16;0.40;;;0.40;;
52902;SDS011;38765;53.176;7.090;2022-08-21T03:20:45;0.40;;;0.40;;
52902;SDS011;38765;53.176;7.090;2022-08-21T03:23:14;0.40;;;0.40;;
52902;SDS011;38765;53.176;7.090;2022-08-21T03:25:44;0.40;;;0.40;;
52902;SDS011;38765;53.176;7.090;2022-08-21T03:28:20;0.40;;;0.40;;
52902;SDS011;38765;53.176;7.090;2022-08-21T03:30:49;0.40;;;0.40;;
52902;SDS011;38765;53.176;7.090;2022-08-21T03:33:17;0.40;;;0.40;;
52902;SDS011;38765;53.176;7.090;2022-08-21T03:35:44;0.40;;;0.40;;
52902;SDS011;38765;53.176;7.090;2022-08-21T03:38:18;0.40;;;0.40;;
52902;SDS011;38765;53.176;7.090;2022-08-21T03:40:44;0.40;;;0.40;;
52902;SDS011;38765;53.176;7.090;2022-08-21T03:43:12;0.40;;;0.40;;
52902;SDS011;38765;53.176;7.090;2022-08-21T03:45:38;0.40;;;0.40;;
52902;SDS011;38765;53.176;7.090;2022-08-21T03:48:05;0.40;;;0.40;;
52902;SDS011;38765;53.176;7.090;2022-08-21T03:50:35;0.40;;;0.40;;
52902;SDS011;38765;53.176;7.090;2022-08-21T03:53:05;0.40;;;0.40;;
52902;SDS011;38765;53.176;7.090;2022-08-21T03:55:33;0.40;;;0.40;;
52902;SDS011;38765;53.176;7.090;2022-08-21T03:57:59;0.40;;;0.40;;
52902;SDS011;38765;53.176;7.090;2022-08-21T04:00:27;0.40;;;0.40;;
52902;SDS011;38765;53.176;7.090;2022-08-21T04:03:20;0.40;;;0.40;;
52902;SDS011;38765;53.176;7.090;2022-08-21T04:05:46;0.40;;;0.40;;
52902;SDS011;38765;53.176;7.090;2022-08-21T04:08:13;0.40;;;0.40;;
52902;SDS011;38765;53.176;7.090;2022-08-21T04:10:40;0.40;;;0.40;;
52902;SDS011;38765;53.176;7.090;2022-08-21T04:13:10;0.32;;;0.32;;
52902;SDS011;38765;53.176;7.090;2022-08-21T04:15:36;0.40;;;0.40;;
52902;SDS011;38765;53.176;7.090;2022-08-21T04:18:02;0.40;;;0.40;;
52902;SDS011;38765;53.176;7.090;2022-08-21T04:20:29;0.40;;;0.40;;
52902;SDS011;38765;53.176;7.090;2022-08-21T04:22:54;0.40;;;0.40;;
52902;SDS011;38765;53.176;7.090;2022-08-21T04:25:32;0.40;;;0.40;;
52902;SDS011;38765;53.176;7.090;2022-08-21T04:28:01;0.40;;;0.40;;
52902;SDS011;38765;53.176;7.090;2022-08-21T04:30:27;0.40;;;0.40;;
52902;SDS011;38765;53.176;7.090;2022-08-21T04:33:01;0.40;;;0.40;;
52902;SDS011;38765;53.176;7.090;2022-08-21T04:35:32;0.40;;;0.40;;
52902;SDS011;38765;53.176;7.090;2022-08-21T04:38:07;0.40;;;0.40;;
52902;SDS011;38765;53.176;7.090;2022-08-21T04:40:39;0.40;;;0.40;;
52902;SDS011;38765;53.176;7.090;2022-08-21T04:43:14;0.40;;;0.40;;
52902;SDS011;38765;53.176;7.090;2022-08-21T04:45:51;0.40;;;0.40;;
52902;SDS011;38765;53.176;7.090;2022-08-21T04:48:21;0.40;;;0.40;;
52902;SDS011;38765;53.176;7.090;2022-08-21T04:50:53;0.40;;;0.40;;
52902;SDS011;38765;53.176;7.090;2022-08-21T04:56:07;0.40;;;0.40;;
52902;SDS011;38765;53.176;7.090;2022-08-21T04:58:43;0.40;;;0.40;;
52902;SDS011;38765;53.176;7.090;2022-08-21T05:01:22;0.40;;;0.40;;
52902;SDS011;38765;53.176;7.090;2022-08-21T05:06:23;0.40;;;0.40;;
52902;SDS011;38765;53.176;7.090;2022-08-21T05:11:23;0.40;;;0.40;;
52902;SDS011;38765;53.176;7.090;2022-08-21T05:13:49;0.40;;;0.40;;
52902;SDS011;38765;53.176;7.090;2022-08-21T05:16:15;0.40;;;0.40;;
52902;SDS011;38765;53.176;7.090;2022-08-21T05:18:41;0.40;;;0.40;;
52902;SDS011;38765;53.176;7.090;2022-08-21T05:21:07;0.40;;;0.40;;
52902;SDS011;38765;53.176;7.090;2022-08-21T05:23:36;0.40;;;0.40;;
52902;SDS011;38765;53.176;7.090;2022-08-21T05:26:02;0.40;;;0.40;;
52902;SDS011;38765;53.176;7.090;2022-08-21T05:28:33;0.40;;;0.40;;
52902;SDS011;38765;53.176;7.090;2022-08-21T05:31:10;0.40;;;0.40;;
52902;SDS011;38765;53.176;7.090;2022-08-21T05:33:39;0.40;;;0.40;;
52902;SDS011;38765;53.176;7.090;2022-08-21T05:36:07;0.40;;;0.40;;
52902;SDS011;38765;53.176;7.090;2022-08-21T05:38:38;0.40;;;0.40;;
52902;SDS011;38765;53.176;7.090;2022-08-21T05:41:04;0.40;;;0.40;;
52902;SDS011;38765;53.176;7.090;2022-08-21T05:43:29;0.40;;;0.40;;
52902;SDS011;38765;53.176;7.090;2022-08-21T05:46:05;0.40;;;0.40;;
52902;SDS011;38765;53.176;7.090;2022-08-21T05:48:32;0.40;;;0.40;;
52902;SDS011;38765;53.176;7.090;2022-08-21T05:51:06;0.40;;;0.40;;
52902;SDS011;38765;53.176;7.090;2022-08-21T05:53:37;0.40;;;0.40;;
52902;SDS011;38765;53.176;7.090;2022-08-21T05:56:03;0.40;;;0.40;;
52902;SDS011;38765;53.176;7.090;2022-08-21T05:58:30;0.40;;;0.40;;
52902;SDS011;38765;53.176;7.090;2022-08-21T06:01:08;0.40;;;0.40;;
52902;SDS011;38765;53.176;7.090;2022-08-21T06:03:40;0.40;;;0.40;;
52902;SDS011;38765;53.176;7.090;2022-08-21T06:06:06;0.40;;;0.40;;
52902;SDS011;38765;53.176;7.090;2022-08-21T06:08:45;0.40;;;0.40;;
52902;SDS011;38765;53.176;7.090;2022-08-21T06:11:15;0.40;;;0.40;;
52902;SDS011;38765;53.176;7.090;2022-08-21T06:13:50;0.40;;;0.40;;
52902;SDS011;38765;53.176;7.090;2022-08-21T06:16:18;0.40;;;0.40;;
52902;SDS011;38765;53.176;7.090;2022-08-21T06:18:44;0.40;;;0.40;;
52902;SDS011;38765;53.176;7.090;2022-08-21T06:21:17;0.40;;;0.40;;
52902;SDS011;38765;53.176;7.090;2022-08-21T06:23:49;0.40;;;0.40;;
52902;SDS011;38765;53.176;7.090;2022-08-21T06:26:15;0.40;;;0.40;;
52902;SDS011;38765;53.176;7.090;2022-08-21T06:28:47;0.40;;;0.40;;
52902;SDS011;38765;53.176;7.090;2022-08-21T06:31:22;0.40;;;0.40;;
52902;SDS011;38765;53.176;7.090;2022-08-21T06:33:50;0.40;;;0.40;;
52902;SDS011;38765;53.176;7.090;2022-08-21T06:36:17;0.40;;;0.40;;
52902;SDS011;38765;53.176;7.090;2022-08-21T06:38:43;0.40;;;0.40;;
52902;SDS011;38765;53.176;7.090;2022-08-21T06:41:13;0.40;;;0.40;;
52902;SDS011;38765;53.176;7.090;2022-08-21T06:43:39;0.40;;;0.40;;
52902;SDS011;38765;53.176;7.090;2022-08-21T06:46:05;0.50;;;0.50;;
52902;SDS011;38765;53.176;7.090;2022-08-21T06:48:35;0.50;;;0.50;;
52902;SDS011;38765;53.176;7.090;2022-08-21T06:51:03;0.50;;;0.50;;
52902;SDS011;38765;53.176;7.090;2022-08-21T06:53:32;0.40;;;0.40;;
52902;SDS011;38765;53.176;7.090;2022-08-21T06:56:03;0.50;;;0.50;;
52902;SDS011;38765;53.176;7.090;2022-08-21T06:58:31;0.50;;;0.50;;
52902;SDS011;38765;53.176;7.090;2022-08-21T07:00:57;0.50;;;0.50;;
52902;SDS011;38765;53.176;7.090;2022-08-21T07:03:37;0.50;;;0.50;;
52902;SDS011;38765;53.176;7.090;2022-08-21T07:06:11;0.40;;;0.40;;
52902;SDS011;38765;53.176;7.090;2022-08-21T07:08:39;0.40;;;0.40;;
52902;SDS011;38765;53.176;7.090;2022-08-21T07:11:15;0.50;;;0.50;;
52902;SDS011;38765;53.176;7.090;2022-08-21T07:13:49;0.40;;;0.40;;
52902;SDS011;38765;53.176;7.090;2022-08-21T07:16:20;0.40;;;0.40;;
52902;SDS011;38765;53.176;7.090;2022-08-21T07:18:47;0.50;;;0.50;;
52902;SDS011;38765;53.176;7.090;2022-08-21T07:21:13;0.50;;;0.50;;
52902;SDS011;38765;53.176;7.090;2022-08-21T07:23:45;0.50;;;0.50;;
52902;SDS011;38765;53.176;7.090;2022-08-21T07:26:15;0.50;;;0.50;;
52902;SDS011;38765;53.176;7.090;2022-08-21T07:28:43;0.47;;;0.47;;
52902;SDS011;38765;53.176;7.090;2022-08-21T07:31:09;0.50;;;0.50;;
52902;SDS011;38765;53.176;7.090;2022-08-21T07:33:38;0.50;;;0.50;;
52902;SDS011;38765;53.176;7.090;2022-08-21T07:36:07;0.50;;;0.50;;
52902;SDS011;38765;53.176;7.090;2022-08-21T07:38:36;0.50;;;0.50;;
52902;SDS011;38765;53.176;7.090;2022-08-21T07:41:04;0.50;;;0.50;;
52902;SDS011;38765;53.176;7.090;2022-08-21T07:43:48;0.50;;;0.50;;
52902;SDS011;38765;53.176;7.090;2022-08-21T07:46:25;0.50;;;0.50;;
52902;SDS011;38765;53.176;7.090;2022-08-21T07:48:51;0.50;;;0.50;;
52902;SDS011;38765;53.176;7.090;2022-08-21T07:51:20;0.50;;;0.50;;
52902;SDS011;38765;53.176;7.090;2022-08-21T07:53:56;0.50;;;0.50;;
52902;SDS011;38765;53.176;7.090;2022-08-21T07:56:24;0.50;;;0.50;;
52902;SDS011;38765;53.176;7.090;2022-08-21T07:58:59;0.50;;;0.50;;
52902;SDS011;38765;53.176;7.090;2022-08-21T08:01:27;0.50;;;0.50;;
52902;SDS011;38765;53.176;7.090;2022-08-21T08:03:54;0.50;;;0.50;;
52902;SDS011;38765;53.176;7.090;2022-08-21T08:06:23;0.50;;;0.50;;
52902;SDS011;38765;53.176;7.090;2022-08-21T08:08:49;0.50;;;0.50;;
52902;SDS011;38765;53.176;7.090;2022-08-21T08:11:17;0.57;;;0.57;;
52902;SDS011;38765;53.176;7.090;2022-08-21T08:13:47;0.60;;;0.50;;
52902;SDS011;38765;53.176;7.090;2022-08-21T08:16:17;0.50;;;0.50;;
52902;SDS011;38765;53.176;7.090;2022-08-21T08:18:46;0.52;;;0.52;;
52902;SDS011;38765;53.176;7.090;2022-08-21T08:21:12;0.70;;;0.60;;
52902;SDS011;38765;53.176;7.090;2022-08-21T08:23:47;0.50;;;0.50;;
52902;SDS011;38765;53.176;7.090;2022-08-21T08:26:13;0.50;;;0.50;;
52902;SDS011;38765;53.176;7.090;2022-08-21T08:28:42;0.50;;;0.50;;
52902;SDS011;38765;53.176;7.090;2022-08-21T08:31:08;0.50;;;0.50;;
52902;SDS011;38765;53.176;7.090;2022-08-21T08:33:34;0.60;;;0.60;;
52902;SDS011;38765;53.176;7.090;2022-08-21T08:36:12;0.70;;;0.52;;
52902;SDS011;38765;53.176;7.090;2022-08-21T08:38:43;0.50;;;0.50;;
52902;SDS011;38765;53.176;7.090;2022-08-21T08:41:19;0.60;;;0.60;;
52902;SDS011;38765;53.176;7.090;2022-08-21T08:44:03;0.60;;;0.60;;
52902;SDS011;38765;53.176;7.090;2022-08-21T08:49:05;0.60;;;0.60;;
52902;SDS011;38765;53.176;7.090;2022-08-21T08:57:31;0.60;;;0.60;;
52902;SDS011;38765;53.176;7.090;2022-08-21T09:00:00;0.70;;;0.60;;
52902;SDS011;38765;53.176;7.090;2022-08-21T09:02:38;0.60;;;0.60;;
52902;SDS011;38765;53.176;7.090;2022-08-21T09:05:11;0.70;;;0.60;;
52902;SDS011;38765;53.176;7.090;2022-08-21T09:10:46;0.70;;;0.60;;
52902;SDS011;38765;53.176;7.090;2022-08-21T09:13:23;0.60;;;0.60;;
52902;SDS011;38765;53.176;7.090;2022-08-21T09:22:37;0.65;;;0.60;;
52902;SDS011;38765;53.176;7.090;2022-08-21T09:25:30;0.70;;;0.60;;
52902;SDS011;38765;53.176;7.090;2022-08-21T09:28:07;0.70;;;0.60;;
52902;SDS011;38765;53.176;7.090;2022-08-21T09:30:37;0.70;;;0.70;;
52902;SDS011;38765;53.176;7.090;2022-08-21T09:33:06;0.70;;;0.60;;
52902;SDS011;38765;53.176;7.090;2022-08-21T09:35:47;0.70;;;0.60;;
52902;SDS011;38765;53.176;7.090;2022-08-21T09:38:23;0.70;;;0.60;;
52902;SDS011;38765;53.176;7.090;2022-08-21T09:41:04;0.70;;;0.70;;
52902;SDS011;38765;53.176;7.090;2022-08-21T09:43:36;0.70;;;0.60;;
52902;SDS011;38765;53.176;7.090;2022-08-21T09:46:09;0.70;;;0.60;;
52902;SDS011;38765;53.176;7.090;2022-08-21T09:48:42;0.60;;;0.60;;
52902;SDS011;38765;53.176;7.090;2022-08-21T09:51:23;0.70;;;0.60;;
52902;SDS011;38765;53.176;7.090;2022-08-21T09:56:36;0.70;;;0.60;;
52902;SDS011;38765;53.176;7.090;2022-08-21T09:59:29;0.70;;;0.60;;
52902;SDS011;38765;53.176;7.090;2022-08-21T10:02:01;0.70;;;0.70;;
52902;SDS011;38765;53.176;7.090;2022-08-21T10:04:50;0.70;;;0.60;;
52902;SDS011;38765;53.176;7.090;2022-08-21T10:07:26;0.70;;;0.60;;
52902;SDS011;38765;53.176;7.090;2022-08-21T10:12:44;0.70;;;0.60;;
52902;SDS011;38765;53.176;7.090;2022-08-21T10:18:34;0.70;;;0.60;;
52902;SDS011;38765;53.176;7.090;2022-08-21T10:23:48;0.70;;;0.60;;
52902;SDS011;38765;53.176;7.090;2022-08-21T10:26:41;0.70;;;0.60;;
52902;SDS011;38765;53.176;7.090;2022-08-21T10:33:01;0.70;;;0.60;;
52902;SDS011;38765;53.176;7.090;2022-08-21T10:35:33;0.70;;;0.60;;
52902;SDS011;38765;53.176;7.090;2022-08-21T10:49:21;0.70;;;0.70;;
52902;SDS011;38765;53.176;7.090;2022-08-21T10:52:11;0.70;;;0.68;;
52902;SDS011;38765;53.176;7.090;2022-08-21T10:54:59;0.70;;;0.60;;
52902;SDS011;38765;53.176;7.090;2022-08-21T10:57:56;0.68;;;0.60;;
52902;SDS011;38765;53.176;7.090;2022-08-21T11:00:30;0.70;;;0.70;;
52902;SDS011;38765;53.176;7.090;2022-08-21T11:06:08;0.70;;;0.70;;
52902;SDS011;38765;53.176;7.090;2022-08-21T11:08:50;0.70;;;0.70;;
52902;SDS011;38765;53.176;7.090;2022-08-21T11:12:05;0.70;;;0.60;;
52902;SDS011;38765;53.176;7.090;2022-08-21T11:17:45;0.70;;;0.70;;
52902;SDS011;38765;53.176;7.090;2022-08-21T11:20:21;0.70;;;0.60;;
52902;SDS011;38765;53.176;7.090;2022-08-21T11:23:53;0.70;;;0.65;;
52902;SDS011;38765;53.176;7.090;2022-08-21T11:26:23;0.70;;;0.68;;
52902;SDS011;38765;53.176;7.090;2022-08-21T11:28:56;0.70;;;0.60;;
52902;SDS011;38765;53.176;7.090;2022-08-21T11:34:39;0.70;;;0.63;;
52902;SDS011;38765;53.176;7.090;2022-08-21T11:37:11;0.70;;;0.70;;
52902;SDS011;38765;53.176;7.090;2022-08-21T11:42:19;0.70;;;0.70;;
52902;SDS011;38765;53.176;7.090;2022-08-21T11:44:55;0.70;;;0.60;;
52902;SDS011;38765;53.176;7.090;2022-08-21T11:50:25;0.70;;;0.70;;
52902;SDS011;38765;53.176;7.090;2022-08-21T11:53:04;0.70;;;0.70;;
52902;SDS011;38765;53.176;7.090;2022-08-21T11:55:47;0.70;;;0.60;;
52902;SDS011;38765;53.176;7.090;2022-08-21T11:58:26;0.70;;;0.60;;
52902;SDS011;38765;53.176;7.090;2022-08-21T12:00:58;0.70;;;0.70;;
52902;SDS011;38765;53.176;7.090;2022-08-21T12:06:01;0.70;;;0.60;;
52902;SDS011;38765;53.176;7.090;2022-08-21T12:08:39;0.70;;;0.70;;
52902;SDS011;38765;53.176;7.090;2022-08-21T12:13:38;0.70;;;0.60;;
52902;SDS011;38765;53.176;7.090;2022-08-21T12:16:27;0.70;;;0.70;;
52902;SDS011;38765;53.176;7.090;2022-08-21T12:19:27;0.70;;;0.60;;
52902;SDS011;38765;53.176;7.090;2022-08-21T12:22:13;0.68;;;0.60;;
52902;SDS011;38765;53.176;7.090;2022-08-21T12:24:41;0.70;;;0.60;;
52902;SDS011;38765;53.176;7.090;2022-08-21T12:27:29;0.60;;;0.60;;
52902;SDS011;38765;53.176;7.090;2022-08-21T12:29:58;0.60;;;0.60;;
52902;SDS011;38765;53.176;7.090;2022-08-21T12:32:28;0.70;;;0.60;;
52902;SDS011;38765;53.176;7.090;2022-08-21T12:35:15;0.57;;;0.57;;
52902;SDS011;38765;53.176;7.090;2022-08-21T12:40:46;0.60;;;0.60;;
52902;SDS011;38765;53.176;7.090;2022-08-21T12:47:05;0.50;;;0.50;;
52902;SDS011;38765;53.176;7.090;2022-08-21T12:52:24;0.50;;;0.50;;
52902;SDS011;38765;53.176;7.090;2022-08-21T13:07:08;0.50;;;0.50;;
52902;SDS011;38765;53.176;7.090;2022-08-21T13:09:41;0.50;;;0.50;;
52902;SDS011;38765;53.176;7.090;2022-08-21T13:12:16;0.50;;;0.50;;
52902;SDS011;38765;53.176;7.090;2022-08-21T13:14:44;0.60;;;0.60;;
52902;SDS011;38765;53.176;7.090;2022-08-21T13:17:17;0.50;;;0.50;;
52902;SDS011;38765;53.176;7.090;2022-08-21T13:19:59;0.60;;;0.50;;
52902;SDS011;38765;53.176;7.090;2022-08-21T13:22:30;0.50;;;0.50;;
52902;SDS011;38765;53.176;7.090;2022-08-21T13:24:56;0.50;;;0.50;;
52902;SDS011;38765;53.176;7.090;2022-08-21T13:27:25;0.60;;;0.60;;
52902;SDS011;38765;53.176;7.090;2022-08-21T13:32:35;0.60;;;0.50;;
52902;SDS011;38765;53.176;7.090;2022-08-21T13:35:23;0.52;;;0.52;;
52902;SDS011;38765;53.176;7.090;2022-08-21T13:37:53;0.50;;;0.50;;
52902;SDS011;38765;53.176;7.090;2022-08-21T13:40:25;0.55;;;0.55;;
52902;SDS011;38765;53.176;7.090;2022-08-21T13:42:55;0.60;;;0.60;;
52902;SDS011;38765;53.176;7.090;2022-08-21T13:45:29;0.50;;;0.50;;
52902;SDS011;38765;53.176;7.090;2022-08-21T13:47:57;0.50;;;0.50;;
52902;SDS011;38765;53.176;7.090;2022-08-21T13:50:31;0.50;;;0.50;;
52902;SDS011;38765;53.176;7.090;2022-08-21T13:53:07;0.50;;;0.50;;
52902;SDS011;38765;53.176;7.090;2022-08-21T13:55:57;0.50;;;0.50;;
52902;SDS011;38765;53.176;7.090;2022-08-21T13:58:41;0.50;;;0.50;;
52902;SDS011;38765;53.176;7.090;2022-08-21T14:01:23;0.50;;;0.50;;
52902;SDS011;38765;53.176;7.090;2022-08-21T14:04:05;0.50;;;0.50;;
52902;SDS011;38765;53.176;7.090;2022-08-21T14:06:44;0.50;;;0.50;;
52902;SDS011;38765;53.176;7.090;2022-08-21T14:09:29;0.50;;;0.50;;
52902;SDS011;38765;53.176;7.090;2022-08-21T14:11:57;0.50;;;0.50;;
52902;SDS011;38765;53.176;7.090;2022-08-21T14:14:37;0.50;;;0.50;;
52902;SDS011;38765;53.176;7.090;2022-08-21T14:17:09;0.50;;;0.50;;
52902;SDS011;38765;53.176;7.090;2022-08-21T14:19:44;0.50;;;0.50;;
52902;SDS011;38765;53.176;7.090;2022-08-21T14:27:54;0.50;;;0.50;;
52902;SDS011;38765;53.176;7.090;2022-08-21T14:30:33;0.50;;;0.50;;
52902;SDS011;38765;53.176;7.090;2022-08-21T14:33:03;0.50;;;0.50;;
52902;SDS011;38765;53.176;7.090;2022-08-21T14:35:34;0.50;;;0.50;;
52902;SDS011;38765;53.176;7.090;2022-08-21T14:38:04;0.50;;;0.50;;
52902;SDS011;38765;53.176;7.090;2022-08-21T14:40:50;0.40;;;0.40;;
52902;SDS011;38765;53.176;7.090;2022-08-21T14:43:18;0.40;;;0.40;;
52902;SDS011;38765;53.176;7.090;2022-08-21T14:45:45;0.40;;;0.40;;
52902;SDS011;38765;53.176;7.090;2022-08-21T14:48:14;0.40;;;0.40;;
52902;SDS011;38765;53.176;7.090;2022-08-21T14:50:39;0.40;;;0.40;;
52902;SDS011;38765;53.176;7.090;2022-08-21T14:53:08;0.40;;;0.40;;
52902;SDS011;38765;53.176;7.090;2022-08-21T14:55:34;0.40;;;0.40;;
52902;SDS011;38765;53.176;7.090;2022-08-21T14:58:23;0.40;;;0.40;;
52902;SDS011;38765;53.176;7.090;2022-08-21T15:00:55;0.40;;;0.40;;
52902;SDS011;38765;53.176;7.090;2022-08-21T15:03:23;0.40;;;0.40;;
52902;SDS011;38765;53.176;7.090;2022-08-21T15:05:50;0.40;;;0.40;;
52902;SDS011;38765;53.176;7.090;2022-08-21T15:08:23;0.40;;;0.40;;
52902;SDS011;38765;53.176;7.090;2022-08-21T15:10:57;0.40;;;0.40;;
52902;SDS011;38765;53.176;7.090;2022-08-21T15:13:34;0.40;;;0.40;;
52902;SDS011;38765;53.176;7.090;2022-08-21T15:16:04;0.40;;;0.40;;
52902;SDS011;38765;53.176;7.090;2022-08-21T15:18:35;0.40;;;0.40;;
52902;SDS011;38765;53.176;7.090;2022-08-21T15:21:11;0.40;;;0.40;;
52902;SDS011;38765;53.176;7.090;2022-08-21T15:23:37;0.40;;;0.40;;
52902;SDS011;38765;53.176;7.090;2022-08-21T15:26:08;0.40;;;0.40;;
52902;SDS011;38765;53.176;7.090;2022-08-21T15:28:38;0.40;;;0.40;;
52902;SDS011;38765;53.176;7.090;2022-08-21T15:31:12;0.40;;;0.40;;
52902;SDS011;38765;53.176;7.090;2022-08-21T15:33:38;0.40;;;0.40;;
52902;SDS011;38765;53.176;7.090;2022-08-21T15:36:08;0.40;;;0.40;;
52902;SDS011;38765;53.176;7.090;2022-08-21T15:38:34;0.40;;;0.40;;
52902;SDS011;38765;53.176;7.090;2022-08-21T15:41:03;0.40;;;0.40;;
52902;SDS011;38765;53.176;7.090;2022-08-21T15:43:36;0.40;;;0.40;;
52902;SDS011;38765;53.176;7.090;2022-08-21T15:46:09;0.40;;;0.40;;
52902;SDS011;38765;53.176;7.090;2022-08-21T15:48:48;0.40;;;0.40;;
52902;SDS011;38765;53.176;7.090;2022-08-21T15:51:15;0.40;;;0.40;;
52902;SDS011;38765;53.176;7.090;2022-08-21T15:53:44;0.40;;;0.40;;
52902;SDS011;38765;53.176;7.090;2022-08-21T15:56:23;0.40;;;0.40;;
52902;SDS011;38765;53.176;7.090;2022-08-21T15:59:06;0.40;;;0.40;;
52902;SDS011;38765;53.176;7.090;2022-08-21T16:01:34;0.40;;;0.40;;
52902;SDS011;38765;53.176;7.090;2022-08-21T16:04:08;0.40;;;0.40;;
52902;SDS011;38765;53.176;7.090;2022-08-21T16:06:36;0.40;;;0.40;;
52902;SDS011;38765;53.176;7.090;2022-08-21T16:09:07;0.40;;;0.40;;
52902;SDS011;38765;53.176;7.090;2022-08-21T16:11:33;0.40;;;0.40;;
52902;SDS011;38765;53.176;7.090;2022-08-21T16:14:02;0.40;;;0.40;;
52902;SDS011;38765;53.176;7.090;2022-08-21T16:16:28;0.40;;;0.40;;
52902;SDS011;38765;53.176;7.090;2022-08-21T16:19:05;0.40;;;0.40;;
52902;SDS011;38765;53.176;7.090;2022-08-21T16:21:32;0.40;;;0.40;;
52902;SDS011;38765;53.176;7.090;2022-08-21T16:24:01;0.40;;;0.40;;
52902;SDS011;38765;53.176;7.090;2022-08-21T16:26:29;0.40;;;0.40;;
52902;SDS011;38765;53.176;7.090;2022-08-21T16:29:03;0.40;;;0.40;;
52902;SDS011;38765;53.176;7.090;2022-08-21T16:31:32;0.40;;;0.40;;
52902;SDS011;38765;53.176;7.090;2022-08-21T16:34:05;0.40;;;0.40;;
52902;SDS011;38765;53.176;7.090;2022-08-21T16:36:32;0.40;;;0.40;;
52902;SDS011;38765;53.176;7.090;2022-08-21T16:39:01;0.40;;;0.40;;
52902;SDS011;38765;53.176;7.090;2022-08-21T16:41:32;0.40;;;0.40;;
52902;SDS011;38765;53.176;7.090;2022-08-21T16:44:05;0.40;;;0.40;;
52902;SDS011;38765;53.176;7.090;2022-08-21T16:46:36;0.40;;;0.40;;
52902;SDS011;38765;53.176;7.090;2022-08-21T16:49:04;0.40;;;0.40;;
52902;SDS011;38765;53.176;7.090;2022-08-21T16:51:30;0.40;;;0.40;;
52902;SDS011;38765;53.176;7.090;2022-08-21T16:53:58;0.40;;;0.40;;
52902;SDS011;38765;53.176;7.090;2022-08-21T16:56:32;0.40;;;0.40;;
52902;SDS011;38765;53.176;7.090;2022-08-21T16:59:01;0.40;;;0.40;;
52902;SDS011;38765;53.176;7.090;2022-08-21T17:01:28;0.40;;;0.40;;